createdAt,value
2023-02-16T00:01:25.416Z,101597.28
2023-02-16T00:03:54.435Z,101587.03
2023-02-16T00:06:22.931Z,101582.66
2023-02-16T00:08:52.612Z,101590.41
2023-02-16T00:11:52.274Z,101591.22
2023-02-16T00:14:23.359Z,101595.69
2023-02-16T00:16:50.919Z,101591.38
2023-02-16T00:19:25.044Z,101600.94
2023-02-16T00:21:54.844Z,101600.22
2023-02-16T00:24:23.045Z,101599.38
2023-02-16T00:26:50.263Z,101591.66
2023-02-16T00:29:27.320Z,101600.38
2023-02-16T00:31:55.864Z,101601.41
2023-02-16T00:34:30.647Z,101594.47
2023-02-16T00:36:59.202Z,101603.25
2023-02-16T00:39:26.981Z,101606.63
2023-02-16T00:41:59.890Z,101591.88
2023-02-16T00:44:32.669Z,101596.28
2023-02-16T00:47:19.828Z,101594.44
2023-02-16T00:49:48.365Z,101595.25
2023-02-16T00:52:18.501Z,101598.88
2023-02-16T00:54:45.682Z,101591.16
2023-02-16T00:57:16.617Z,101597.22
2023-02-16T00:59:43.942Z,101593.75
2023-02-16T01:02:11.292Z,101594.63
2023-02-16T01:04:38.523Z,101592.91
2023-02-16T01:07:39.160Z,101588.63
2023-02-16T01:10:25.433Z,101592.25
2023-02-16T01:12:52.437Z,101593.13
2023-02-16T01:15:22.626Z,101590.53
2023-02-16T01:17:49.775Z,101594.09
2023-02-16T01:20:19.396Z,101584.66
2023-02-16T01:22:46.565Z,101602.84
2023-02-16T01:25:14.773Z,101586.34
2023-02-16T01:27:42.270Z,101586.34
2023-02-16T01:30:18.159Z,101582.91
2023-02-16T01:32:51.308Z,101584.66
2023-02-16T01:35:23.238Z,101585.69
2023-02-16T01:37:50.513Z,101582.28
2023-02-16T01:40:23.026Z,101581.44
2023-02-16T01:42:52.284Z,101577.09
2023-02-16T01:45:33.698Z,101573.59
2023-02-16T01:48:06.984Z,101569.16
2023-02-16T01:50:42.667Z,101577.88
2023-02-16T01:53:12.861Z,101575.38
2023-02-16T01:55:43.730Z,101568.66
2023-02-16T01:58:29.592Z,101568.97
2023-02-16T02:00:56.754Z,101569.09
2023-02-16T02:03:48.837Z,101569.94
2023-02-16T02:06:28.160Z,101576.03
2023-02-16T02:09:13.705Z,101570.91
2023-02-16T02:11:46.654Z,101568.13
2023-02-16T02:14:27.620Z,101568.03
2023-02-16T02:17:00.215Z,101575.03
2023-02-16T02:19:27.823Z,101567.34
2023-02-16T02:22:36.169Z,101562.28
2023-02-16T02:25:48.473Z,101555.28
2023-02-16T02:28:31.352Z,101558.78
2023-02-16T02:31:03.346Z,101563.03
2023-02-16T02:33:49.375Z,101556.97
2023-02-16T02:36:40.680Z,101557.09
2023-02-16T02:39:41.312Z,101563.13
2023-02-16T02:42:43.756Z,101552.69
2023-02-16T02:45:18.958Z,101551.00
2023-02-16T02:47:47.966Z,101550.09
2023-02-16T02:51:04.790Z,101543.28
2023-02-16T02:53:33.756Z,101548.41
2023-02-16T02:56:21.756Z,101545.72
2023-02-16T02:59:09.386Z,101540.53
2023-02-16T03:01:38.097Z,101538.78
2023-02-16T03:04:06.315Z,101540.47
2023-02-16T03:06:46.796Z,101537.91
2023-02-16T03:09:15.334Z,101537.09
2023-02-16T03:12:01.726Z,101535.34
2023-02-16T03:14:42.005Z,101537.06
2023-02-16T03:17:35.053Z,101538.06
2023-02-16T03:20:24.685Z,101534.66
2023-02-16T03:23:10.293Z,101535.53
2023-02-16T03:25:57.878Z,101529.38
2023-02-16T03:28:45.884Z,101536.28
2023-02-16T03:31:17.943Z,101534.56
2023-02-16T03:33:46.076Z,101534.56
2023-02-16T03:36:13.471Z,101538.09
2023-02-16T03:38:40.805Z,101539.13
2023-02-16T03:41:07.977Z,101535.72
2023-02-16T03:43:35.180Z,101531.38
2023-02-16T03:46:02.387Z,101538.38
2023-02-16T03:48:29.605Z,101539.19
2023-02-16T03:50:56.765Z,101534.84
2023-02-16T03:53:24.429Z,101525.28
2023-02-16T03:55:51.616Z,101533.06
2023-02-16T03:58:21.007Z,101530.44
2023-02-16T04:00:48.935Z,101534.03
2023-02-16T04:03:16.405Z,101529.81
2023-02-16T04:05:44.315Z,101522.13
2023-02-16T04:08:12.022Z,101522.13
2023-02-16T04:10:39.508Z,101526.47
2023-02-16T04:13:06.762Z,101534.34
2023-02-16T04:15:34.310Z,101535.19
2023-02-16T04:18:01.968Z,101526.47
2023-02-16T04:20:31.430Z,101532.53
2023-02-16T04:22:58.924Z,101538.69
2023-02-16T04:25:26.483Z,101525.91
2023-02-16T04:27:53.978Z,101532.06
2023-02-16T04:30:29.694Z,101527.69
2023-02-16T04:32:56.856Z,101522.44
2023-02-16T04:35:23.992Z,101521.78
2023-02-16T04:37:51.205Z,101531.34
2023-02-16T04:40:18.722Z,101531.38
2023-02-16T04:42:46.218Z,101533.09
2023-02-16T04:45:14.079Z,101528.78
2023-02-16T04:47:41.479Z,101526.28
2023-02-16T04:50:09.153Z,101521.03
2023-02-16T04:52:36.820Z,101521.03
2023-02-16T04:55:05.703Z,101519.34
2023-02-16T04:57:32.921Z,101514.13
2023-02-16T05:00:00.208Z,101513.28
2023-02-16T05:02:27.393Z,101515.81
2023-02-16T05:04:54.621Z,101517.69
2023-02-16T05:07:21.778Z,101519.47
2023-02-16T05:09:48.938Z,101513.44
2023-02-16T05:12:34.879Z,101513.41
2023-02-16T05:15:02.030Z,101516.81
2023-02-16T05:17:29.177Z,101524.59
2023-02-16T05:19:59.222Z,101518.50
2023-02-16T05:22:28.893Z,101523.78
2023-02-16T05:24:56.120Z,101534.28
2023-02-16T05:27:25.382Z,101534.38
2023-02-16T05:29:52.663Z,101532.69
2023-02-16T05:32:20.408Z,101531.78
2023-02-16T05:34:47.987Z,101528.28
2023-02-16T05:37:16.574Z,101530.81
2023-02-16T05:39:44.228Z,101536.91
2023-02-16T05:42:11.503Z,101529.22
2023-02-16T05:44:38.755Z,101523.94
2023-02-16T05:47:05.937Z,101523.88
2023-02-16T05:49:33.073Z,101524.69
2023-02-16T05:52:00.172Z,101527.25
2023-02-16T05:54:28.064Z,101517.84
2023-02-16T05:56:55.652Z,101529.97
2023-02-16T05:59:23.012Z,101528.22
2023-02-16T06:01:52.230Z,101531.72
2023-02-16T06:04:21.115Z,101541.25
2023-02-16T06:06:48.410Z,101548.28
2023-02-16T06:09:15.634Z,101547.44
2023-02-16T06:11:43.240Z,101546.59
2023-02-16T06:14:16.421Z,101545.75
2023-02-16T06:16:45.856Z,101542.34
2023-02-16T06:19:13.442Z,101538.06
2023-02-16T06:21:40.819Z,101544.13
2023-02-16T06:24:09.514Z,101541.47
2023-02-16T06:26:37.276Z,101536.22
2023-02-16T06:29:04.970Z,101549.25
2023-02-16T06:31:35.830Z,101553.63
2023-02-16T06:34:04.175Z,101552.75
2023-02-16T06:36:31.637Z,101551.00
2023-02-16T06:38:58.900Z,101552.69
2023-02-16T06:41:31.973Z,101556.97
2023-02-16T06:44:00.684Z,101556.97
2023-02-16T06:46:28.171Z,101560.41
2023-02-16T06:48:55.756Z,101558.63
2023-02-16T06:51:23.225Z,101560.38
2023-02-16T06:53:50.464Z,101566.50
2023-02-16T06:56:17.770Z,101566.56
2023-02-16T06:58:45.065Z,101568.31
2023-02-16T07:01:12.566Z,101567.44
2023-02-16T07:03:39.953Z,101563.13
2023-02-16T07:06:07.225Z,101559.59
2023-02-16T07:08:35.683Z,101557.78
2023-02-16T07:11:03.396Z,101568.13
2023-02-16T07:13:30.720Z,101569.78
2023-02-16T07:15:57.942Z,101562.88
2023-02-16T07:18:25.083Z,101560.25
2023-02-16T07:20:52.325Z,101561.03
2023-02-16T07:23:19.501Z,101558.41
2023-02-16T07:25:47.264Z,101555.75
2023-02-16T07:28:14.572Z,101554.00
2023-02-16T07:30:42.237Z,101553.13
2023-02-16T07:33:10.139Z,101556.63
2023-02-16T07:35:37.532Z,101555.75
2023-02-16T07:38:05.844Z,101545.44
2023-02-16T07:40:33.141Z,101544.56
2023-02-16T07:43:01.389Z,101538.44
2023-02-16T07:45:29.071Z,101546.97
2023-02-16T07:47:56.282Z,101542.59
2023-02-16T07:50:23.466Z,101550.31
2023-02-16T07:52:50.659Z,101552.06
2023-02-16T07:55:17.948Z,101548.59
2023-02-16T07:57:45.114Z,101545.19
2023-02-16T08:00:12.449Z,101552.94
2023-02-16T08:02:40.492Z,101558.97
2023-02-16T08:05:08.073Z,101563.22
2023-02-16T08:07:35.671Z,101565.78
2023-02-16T08:10:02.891Z,101565.75
2023-02-16T08:12:30.216Z,101564.78
2023-02-16T08:14:57.835Z,101562.13
2023-02-16T08:17:25.289Z,101567.28
2023-02-16T08:19:52.476Z,101562.09
2023-02-16T08:22:19.722Z,101562.97
2023-02-16T08:24:46.882Z,101571.53
2023-02-16T08:27:14.066Z,101561.09
2023-02-16T08:29:41.946Z,101560.25
2023-02-16T08:32:12.989Z,101565.38
2023-02-16T08:34:43.235Z,101573.06
2023-02-16T08:37:12.590Z,101560.84
2023-02-16T08:39:40.572Z,101572.06
2023-02-16T08:42:08.418Z,101570.22
2023-02-16T08:44:35.790Z,101559.75
2023-02-16T08:47:03.756Z,101565.63
2023-02-16T08:49:30.989Z,101558.53
2023-02-16T08:51:58.762Z,101561.91
2023-02-16T08:54:30.177Z,101553.91
2023-02-16T08:56:58.973Z,101542.56
2023-02-16T08:59:28.857Z,101547.56
2023-02-16T09:02:00.217Z,101551.75
2023-02-16T09:04:29.093Z,101547.31
2023-02-16T09:06:57.947Z,101545.41
2023-02-16T09:09:26.314Z,101540.03
2023-02-16T09:11:53.589Z,101549.41
2023-02-16T09:14:21.470Z,101543.13
2023-02-16T09:16:48.952Z,101530.69
2023-02-16T09:19:20.566Z,101539.25
2023-02-16T09:21:48.573Z,101540.75
2023-02-16T09:24:15.977Z,101541.38
2023-02-16T09:26:44.611Z,101551.56
2023-02-16T09:29:13.818Z,101539.13
2023-02-16T09:31:42.242Z,101543.28
2023-02-16T09:34:21.762Z,101537.75
2023-02-16T09:36:49.722Z,101539.94
2023-02-16T09:39:17.316Z,101538.00
2023-02-16T09:42:05.124Z,101543.84
2023-02-16T09:44:54.776Z,101539.25
2023-02-16T09:47:30.996Z,101543.22
2023-02-16T09:50:06.352Z,101543.84
2023-02-16T09:52:37.761Z,101538.22
2023-02-16T09:55:14.721Z,101536.22
2023-02-16T09:57:59.081Z,101522.75
2023-02-16T10:00:35.896Z,101531.31
2023-02-16T10:03:32.324Z,101526.75
2023-02-16T10:06:27.641Z,101535.91
2023-02-16T10:09:11.451Z,101540.75
2023-02-16T10:11:42.060Z,101535.97
2023-02-16T10:14:25.624Z,101543.56
2023-02-16T10:17:12.345Z,101526.66
2023-02-16T10:19:43.855Z,101528.94
2023-02-16T10:22:17.337Z,101535.56
2023-02-16T10:25:01.719Z,101541.31
2023-02-16T10:27:37.835Z,101542.91
2023-02-16T10:30:19.902Z,101542.53
2023-02-16T10:32:58.236Z,101546.88
2023-02-16T10:35:32.692Z,101540.63
2023-02-16T10:38:12.954Z,101542.22
2023-02-16T10:40:46.708Z,101540.28
2023-02-16T10:43:34.115Z,101525.03
2023-02-16T10:46:01.830Z,101524.09
2023-02-16T10:48:29.255Z,101522.34
2023-02-16T10:51:03.709Z,101503.41
2023-02-16T10:53:40.119Z,101508.44
2023-02-16T10:56:25.885Z,101502.13
2023-02-16T10:58:53.294Z,101505.38
2023-02-16T11:01:22.444Z,101511.19
2023-02-16T11:03:50.659Z,101504.00
2023-02-16T11:06:20.498Z,101511.16
2023-02-16T11:08:54.219Z,101496.75
2023-02-16T11:11:22.889Z,101497.34
2023-02-16T11:13:50.575Z,101499.50
2023-02-16T11:16:23.017Z,101495.53
2023-02-16T11:18:59.296Z,101502.50
2023-02-16T11:22:02.312Z,101497.94
2023-02-16T11:24:32.079Z,101494.66
2023-02-16T11:27:04.165Z,101496.19
2023-02-16T11:29:31.588Z,101497.31
2023-02-16T11:31:59.738Z,101482.81
2023-02-16T11:34:49.691Z,101485.06
2023-02-16T11:37:31.898Z,101486.13
2023-02-16T11:40:02.029Z,101477.53
2023-02-16T11:42:30.188Z,101475.81
2023-02-16T11:44:58.408Z,101479.66
2023-02-16T11:47:28.565Z,101478.34
2023-02-16T11:50:21.004Z,101471.25
2023-02-16T11:52:53.900Z,101473.41
2023-02-16T11:55:27.310Z,101471.75
2023-02-16T11:57:56.512Z,101469.84
2023-02-16T12:00:26.622Z,101461.34
2023-02-16T12:03:10.162Z,101468.38
2023-02-16T12:06:12.130Z,101455.50
2023-02-16T12:09:03.063Z,101461.28
2023-02-16T12:11:39.614Z,101457.16
2023-02-16T12:14:51.668Z,101457.94
2023-02-16T12:17:50.027Z,101457.09
2023-02-16T12:20:31.972Z,101445.25
2023-02-16T12:23:21.870Z,101448.31
2023-02-16T12:26:28.422Z,101454.19
2023-02-16T12:29:29.597Z,101447.75
2023-02-16T12:32:20.827Z,101446.19
2023-02-16T12:35:15.869Z,101442.84
2023-02-16T12:37:52.337Z,101444.28
2023-02-16T12:40:42.856Z,101434.06
2023-02-16T12:43:18.606Z,101442.00
2023-02-16T12:45:46.428Z,101442.59
2023-02-16T12:48:16.391Z,101438.28
2023-02-16T12:50:44.330Z,101437.28
2023-02-16T12:53:14.581Z,101439.00
2023-02-16T12:55:43.089Z,101436.06
2023-02-16T12:58:26.478Z,101442.13
2023-02-16T13:01:01.017Z,101433.28
2023-02-16T13:03:46.543Z,101429.38
2023-02-16T13:06:15.755Z,101420.03
2023-02-16T13:08:56.155Z,101416.84
2023-02-16T13:11:41.477Z,101422.34
2023-02-16T13:14:17.082Z,101418.00
2023-02-16T13:16:47.342Z,101410.00
2023-02-16T13:19:15.475Z,101419.63
2023-02-16T13:21:54.457Z,101410.53
2023-02-16T13:24:43.068Z,101414.31
2023-02-16T13:27:34.817Z,101411.69
2023-02-16T13:30:35.375Z,101416.50
2023-02-16T13:33:24.425Z,101407.09
2023-02-16T13:36:18.957Z,101401.28
2023-02-16T13:39:09.226Z,101402.75
2023-02-16T13:41:55.567Z,101412.84
2023-02-16T13:44:28.587Z,101407.13
2023-02-16T13:46:56.349Z,101411.63
2023-02-16T13:49:30.007Z,101406.94
2023-02-16T13:51:57.933Z,101407.59
2023-02-16T13:54:40.435Z,101401.97
2023-02-16T13:57:14.457Z,101402.97
2023-02-16T13:59:49.969Z,101407.84
2023-02-16T14:02:59.320Z,101409.38
2023-02-16T14:05:29.574Z,101414.88
2023-02-16T14:08:27.504Z,101409.88
2023-02-16T14:10:55.268Z,101401.38
2023-02-16T14:13:43.198Z,101403.00
2023-02-16T14:16:22.443Z,101391.03
2023-02-16T14:19:05.190Z,101396.16
2023-02-16T14:21:42.842Z,101394.22
2023-02-16T14:24:26.056Z,101409.00
2023-02-16T14:27:02.826Z,101395.84
2023-02-16T14:29:32.753Z,101396.09
2023-02-16T14:32:07.220Z,101394.38
2023-02-16T14:34:40.998Z,101395.22
2023-02-16T14:37:29.618Z,101394.44
2023-02-16T14:40:09.608Z,101401.84
2023-02-16T14:42:36.783Z,101396.28
2023-02-16T14:45:28.557Z,101396.28
2023-02-16T14:48:35.792Z,101391.34
2023-02-16T14:51:40.352Z,101399.63
2023-02-16T14:54:31.702Z,101395.56
2023-02-16T14:57:12.727Z,101393.69
2023-02-16T14:59:52.669Z,101395.47
2023-02-16T15:02:28.447Z,101396.59
2023-02-16T15:04:56.188Z,101392.47
2023-02-16T15:07:24.623Z,101391.97
2023-02-16T15:09:57.276Z,101388.38
2023-02-16T15:12:29.457Z,101386.00
2023-02-16T15:15:02.753Z,101389.28
2023-02-16T15:17:39.363Z,101389.53
2023-02-16T15:20:27.610Z,101390.03
2023-02-16T15:23:01.174Z,101393.41
2023-02-16T15:25:33.927Z,101396.06
2023-02-16T15:28:17.691Z,101393.00
2023-02-16T15:30:58.977Z,101393.53
2023-02-16T15:33:32.834Z,101382.22
2023-02-16T15:36:13.465Z,101382.38
2023-02-16T15:38:59.005Z,101385.63
2023-02-16T15:41:30.133Z,101383.59
2023-02-16T15:43:58.586Z,101374.91
2023-02-16T15:46:34.482Z,101383.06
2023-02-16T15:49:27.555Z,101378.19
2023-02-16T15:51:56.592Z,101375.47
2023-02-16T15:54:35.597Z,101376.81
2023-02-16T15:57:48.021Z,101368.94
2023-02-16T16:00:19.388Z,101371.81
2023-02-16T16:02:49.226Z,101372.75
2023-02-16T16:05:28.275Z,101361.69
2023-02-16T16:07:57.178Z,101359.06
2023-02-16T16:10:28.540Z,101349.88
2023-02-16T16:13:00.907Z,101342.06
2023-02-16T16:15:29.425Z,101347.47
2023-02-16T16:18:00.815Z,101347.94
2023-02-16T16:20:31.188Z,101351.59
2023-02-16T16:23:01.751Z,101350.09
2023-02-16T16:25:38.931Z,101344.81
2023-02-16T16:28:08.141Z,101348.63
2023-02-16T16:30:37.076Z,101341.97
2023-02-16T16:33:10.241Z,101347.00
2023-02-16T16:35:43.270Z,101341.03
2023-02-16T16:38:34.857Z,101338.63
2023-02-16T16:41:03.438Z,101337.91
2023-02-16T16:43:38.355Z,101341.63
2023-02-16T16:46:35.011Z,101340.84
2023-02-16T16:49:06.223Z,101327.69
2023-02-16T16:51:33.400Z,101338.44
2023-02-16T16:54:25.136Z,101329.75
2023-02-16T16:56:52.457Z,101332.59
2023-02-16T16:59:19.783Z,101333.53
2023-02-16T17:01:49.945Z,101322.91
2023-02-16T17:04:17.161Z,101321.31
2023-02-16T17:06:44.357Z,101328.34
2023-02-16T17:09:11.549Z,101320.50
2023-02-16T17:11:38.816Z,101329.22
2023-02-16T17:14:13.296Z,101325.78
2023-02-16T17:16:43.293Z,101322.38
2023-02-16T17:19:14.911Z,101319.03
2023-02-16T17:21:42.854Z,101324.31
2023-02-16T17:24:12.538Z,101325.16
2023-02-16T17:26:40.233Z,101331.44
2023-02-16T17:29:08.253Z,101338.75
2023-02-16T17:31:35.798Z,101328.09
2023-02-16T17:34:03.154Z,101328.94
2023-02-16T17:36:30.310Z,101330.63
2023-02-16T17:38:57.938Z,101335.28
2023-02-16T17:41:29.398Z,101338.63
2023-02-16T17:43:57.019Z,101330.63
2023-02-16T17:46:25.468Z,101341.53
2023-02-16T17:48:55.316Z,101339.91
2023-02-16T17:51:24.503Z,101347.00
2023-02-16T17:53:51.772Z,101348.66
2023-02-16T17:56:20.949Z,101345.31
2023-02-16T17:58:48.489Z,101346.25
2023-02-16T18:01:16.835Z,101346.59
2023-02-16T18:03:44.330Z,101348.59
2023-02-16T18:06:16.850Z,101346.38
2023-02-16T18:08:44.909Z,101346.25
2023-02-16T18:11:12.796Z,101347.22
2023-02-16T18:13:40.145Z,101351.66
2023-02-16T18:16:07.961Z,101345.84
2023-02-16T18:18:38.921Z,101346.06
2023-02-16T18:21:06.521Z,101346.22
2023-02-16T18:23:33.961Z,101341.16
2023-02-16T18:26:01.150Z,101341.16
2023-02-16T18:28:33.288Z,101335.09
2023-02-16T18:31:01.028Z,101335.22
2023-02-16T18:33:28.313Z,101343.13
2023-02-16T18:35:57.429Z,101341.63
2023-02-16T18:38:25.295Z,101345.25
2023-02-16T18:40:54.081Z,101346.13
2023-02-16T18:43:22.132Z,101338.06
2023-02-16T18:45:49.833Z,101340.97
2023-02-16T18:48:17.112Z,101335.16
2023-02-16T18:50:44.775Z,101338.69
2023-02-16T18:53:12.000Z,101332.66
2023-02-16T18:55:39.466Z,101332.00
2023-02-16T18:58:08.232Z,101331.84
2023-02-16T19:00:36.765Z,101332.03
2023-02-16T19:03:04.301Z,101331.34
2023-02-16T19:05:32.274Z,101330.63
2023-02-16T19:07:59.557Z,101325.50
2023-02-16T19:10:27.400Z,101323.91
2023-02-16T19:12:54.606Z,101322.13
2023-02-16T19:15:22.145Z,101312.56
2023-02-16T19:17:49.320Z,101310.97
2023-02-16T19:20:18.555Z,101324.13
2023-02-16T19:22:46.511Z,101320.31
2023-02-16T19:25:14.328Z,101323.06
2023-02-16T19:27:41.681Z,101325.91
2023-02-16T19:30:09.213Z,101330.44
2023-02-16T19:32:36.810Z,101331.06
2023-02-16T19:35:04.262Z,101333.97
2023-02-16T19:37:31.455Z,101324.41
2023-02-16T19:39:58.570Z,101329.03
2023-02-16T19:42:26.094Z,101332.78
2023-02-16T19:44:53.225Z,101334.50
2023-02-16T19:47:20.428Z,101333.44
2023-02-16T19:49:47.602Z,101343.91
2023-02-16T19:52:14.743Z,101334.50
2023-02-16T19:54:41.948Z,101331.88
2023-02-16T19:57:09.231Z,101321.34
2023-02-16T19:59:36.444Z,101323.09
2023-02-16T20:02:03.790Z,101316.09
2023-02-16T20:04:30.938Z,101321.34
2023-02-16T20:06:58.266Z,101326.75
2023-02-16T20:09:25.429Z,101324.91
2023-02-16T20:11:52.612Z,101316.44
2023-02-16T20:14:19.817Z,101323.59
2023-02-16T20:16:47.826Z,101325.50
2023-02-16T20:19:14.990Z,101323.53
2023-02-16T20:21:44.146Z,101325.97
2023-02-16T20:24:11.521Z,101319.97
2023-02-16T20:26:41.420Z,101320.91
2023-02-16T20:29:11.467Z,101326.34
2023-02-16T20:31:49.249Z,101322.75
2023-02-16T20:34:16.512Z,101309.63
2023-02-16T20:36:44.281Z,101309.47
2023-02-16T20:39:11.474Z,101305.22
2023-02-16T20:41:39.160Z,101303.13
2023-02-16T20:44:06.801Z,101300.16
2023-02-16T20:46:34.361Z,101301.94
2023-02-16T20:49:01.600Z,101298.38
2023-02-16T20:51:28.756Z,101306.38
2023-02-16T20:53:56.197Z,101311.78
2023-02-16T20:56:24.779Z,101308.34
2023-02-16T20:58:53.917Z,101311.97
2023-02-16T21:01:28.589Z,101306.84
2023-02-16T21:03:57.141Z,101305.91
2023-02-16T21:06:24.663Z,101299.88
2023-02-16T21:08:51.905Z,101299.94
2023-02-16T21:11:19.358Z,101292.97
2023-02-16T21:13:46.858Z,101292.00
2023-02-16T21:16:14.868Z,101285.28
2023-02-16T21:18:42.306Z,101283.69
2023-02-16T21:21:12.224Z,101279.38
2023-02-16T21:23:39.349Z,101270.75
2023-02-16T21:26:06.760Z,101269.19
2023-02-16T21:28:34.234Z,101268.34
2023-02-16T21:31:10.804Z,101262.22
2023-02-16T21:33:38.282Z,101265.50
2023-02-16T21:36:14.652Z,101269.66
2023-02-16T21:38:42.125Z,101270.66
2023-02-16T21:41:25.662Z,101267.47
2023-02-16T21:44:03.253Z,101257.94
2023-02-16T21:46:33.556Z,101258.94
2023-02-16T21:49:00.793Z,101259.72
2023-02-16T21:51:34.029Z,101259.69
2023-02-16T21:54:01.410Z,101252.50
2023-02-16T21:56:39.971Z,101249.72
2023-02-16T21:59:09.380Z,101241.03
2023-02-16T22:01:39.521Z,101233.41
2023-02-16T22:04:06.855Z,101230.13
2023-02-16T22:06:37.430Z,101227.00
2023-02-16T22:09:07.151Z,101231.41
2023-02-16T22:11:34.361Z,101232.28
2023-02-16T22:14:02.820Z,101230.03
2023-02-16T22:16:32.095Z,101224.13
2023-02-16T22:19:01.584Z,101221.25
2023-02-16T22:21:29.600Z,101223.16
2023-02-16T22:23:57.357Z,101224.13
2023-02-16T22:26:28.633Z,101217.16
2023-02-16T22:28:56.225Z,101216.06
2023-02-16T22:31:25.489Z,101216.84
2023-02-16T22:34:00.453Z,101217.06
2023-02-16T22:36:28.153Z,101214.53
2023-02-16T22:38:55.530Z,101213.88
2023-02-16T22:41:23.598Z,101217.44
2023-02-16T22:43:55.058Z,101214.06
2023-02-16T22:46:23.278Z,101215.69
2023-02-16T22:48:50.980Z,101215.56
2023-02-16T22:51:19.554Z,101216.38
2023-02-16T22:53:47.337Z,101214.72
2023-02-16T22:56:16.398Z,101216.88
2023-02-16T22:58:44.173Z,101218.50
2023-02-16T23:01:14.877Z,101222.78
2023-02-16T23:03:42.705Z,101210.53
2023-02-16T23:06:19.295Z,101201.78
2023-02-16T23:08:47.132Z,101202.94
2023-02-16T23:11:14.367Z,101206.84
2023-02-16T23:13:41.535Z,101209.63
2023-02-16T23:16:12.398Z,101203.19
2023-02-16T23:18:39.972Z,101201.59
2023-02-16T23:21:23.142Z,101196.44
2023-02-16T23:23:51.721Z,101193.84
2023-02-16T23:26:20.298Z,101200.84
2023-02-16T23:28:54.242Z,101192.78
2023-02-16T23:31:22.064Z,101186.59
2023-02-16T23:33:49.453Z,101184.63
2023-02-16T23:36:16.966Z,101192.78
2023-02-16T23:38:44.165Z,101198.13
2023-02-16T23:41:13.476Z,101194.94
2023-02-16T23:43:40.945Z,101196.81
2023-02-16T23:46:09.529Z,101194.34
2023-02-16T23:48:38.122Z,101201.28
2023-02-16T23:51:05.800Z,101184.63
2023-02-16T23:53:33.291Z,101183.03
2023-02-16T23:56:01.531Z,101190.13
2023-02-16T23:58:30.393Z,101196.34
